createdAt,value
2023-03-21T00:03:30.945Z,1000.00
2023-03-21T00:07:30.816Z,996.00
2023-03-21T00:11:30.753Z,993.00
2023-03-21T00:15:42.648Z,987.00
2023-03-21T00:19:31.646Z,989.00
2023-03-21T00:23:30.563Z,984.00
2023-03-21T00:27:47.550Z,977.00
2023-03-21T00:31:31.559Z,972.00
2023-03-21T00:39:31.277Z,962.00
2023-03-21T00:43:30.266Z,966.00
2023-03-21T00:47:30.454Z,968.00
2023-03-21T00:51:30.322Z,963.00
2023-03-21T00:55:30.252Z,960.00
2023-03-21T00:59:30.171Z,960.00
2023-03-21T01:03:30.328Z,961.00
2023-03-21T01:07:30.039Z,955.00
2023-03-21T01:11:29.945Z,950.00
2023-03-21T01:15:29.873Z,940.00
2023-03-21T01:19:51.943Z,933.00
2023-03-21T01:23:30.734Z,928.00
2023-03-21T01:27:30.326Z,932.00
2023-03-21T01:31:29.735Z,924.00
2023-03-21T01:35:34.459Z,918.00
2023-03-21T01:39:30.780Z,911.00
2023-03-21T01:43:29.686Z,914.00
2023-03-21T01:47:29.788Z,914.00
2023-03-21T01:51:29.933Z,909.00
2023-03-21T01:55:30.116Z,909.00
2023-03-21T01:59:30.340Z,910.00
2023-03-21T02:03:35.986Z,907.00
2023-03-21T02:07:30.872Z,909.00
2023-03-21T02:11:29.825Z,908.00
2023-03-21T02:15:29.987Z,904.00
2023-03-21T02:19:35.689Z,900.00
2023-03-21T02:23:31.356Z,893.00
2023-03-21T02:27:29.799Z,884.00
2023-03-21T02:31:30.001Z,886.00
2023-03-21T02:35:30.049Z,889.00
2023-03-21T02:39:30.197Z,888.00
2023-03-21T02:43:30.345Z,884.00
2023-03-21T02:47:30.493Z,886.00
2023-03-21T02:51:30.673Z,877.00
2023-03-21T02:55:30.840Z,876.00
2023-03-21T02:59:32.773Z,877.00
2023-03-21T03:03:34.491Z,873.00
2023-03-21T03:07:30.856Z,876.00
2023-03-21T03:11:30.778Z,868.00
2023-03-21T03:15:30.711Z,864.00
2023-03-21T03:19:34.417Z,865.00
2023-03-21T03:23:31.540Z,867.00
2023-03-21T03:27:30.459Z,857.00
2023-03-21T03:31:30.516Z,864.00
2023-03-21T03:35:30.930Z,859.00
2023-03-21T03:39:30.622Z,852.00
2023-03-21T03:43:30.879Z,849.00
2023-03-21T03:47:34.970Z,850.00
2023-03-21T03:51:31.719Z,856.00
2023-03-21T03:55:30.640Z,857.00
2023-03-21T03:59:30.549Z,852.00
2023-03-21T04:03:39.263Z,848.00
2023-03-21T04:07:31.470Z,838.00
2023-03-21T04:11:30.388Z,840.00
2023-03-21T04:15:30.906Z,839.00
2023-03-21T04:19:30.485Z,839.00
2023-03-21T04:23:30.905Z,834.00
2023-03-21T04:27:30.306Z,837.00
2023-03-21T04:31:30.254Z,822.00
2023-03-21T04:35:30.407Z,821.00
2023-03-21T04:39:30.058Z,819.00
2023-03-21T04:43:29.988Z,816.00
2023-03-21T04:47:29.901Z,812.00
2023-03-21T04:51:29.823Z,807.00
2023-03-21T04:55:29.800Z,804.00
2023-03-21T04:59:29.687Z,805.00
2023-03-21T05:03:30.320Z,803.00
2023-03-21T05:07:29.815Z,795.00
2023-03-21T05:11:29.939Z,798.00
2023-03-21T05:15:30.040Z,788.00
2023-03-21T05:19:30.132Z,785.00
2023-03-21T05:23:30.234Z,778.00
2023-03-21T05:27:30.420Z,783.00
2023-03-21T05:31:30.922Z,782.00
2023-03-21T05:35:30.541Z,780.00
2023-03-21T05:39:30.610Z,781.00
2023-03-21T05:43:31.418Z,780.00
2023-03-21T05:47:30.779Z,781.00
2023-03-21T05:51:30.906Z,779.00
2023-03-21T05:55:30.972Z,777.00
2023-03-21T05:59:31.045Z,774.00
2023-03-21T06:03:31.169Z,773.00
2023-03-21T06:07:31.250Z,771.00
2023-03-21T06:11:31.326Z,771.00
2023-03-21T06:15:31.429Z,765.00
2023-03-21T06:19:31.515Z,760.00
2023-03-21T06:23:31.753Z,797.00
2023-03-21T06:27:31.786Z,836.00
2023-03-21T06:31:31.908Z,937.00
2023-03-21T06:35:32.032Z,1024.00
2023-03-21T06:39:32.446Z,1075.00
2023-03-21T06:43:31.959Z,1071.00
2023-03-21T06:47:32.019Z,1054.00
2023-03-21T06:51:32.019Z,1035.00
2023-03-21T06:55:32.061Z,1020.00
2023-03-21T06:59:33.379Z,998.00
2023-03-21T07:03:32.177Z,987.00
2023-03-21T07:07:32.266Z,965.00
2023-03-21T07:11:32.345Z,948.00
2023-03-21T07:15:32.442Z,936.00
2023-03-21T07:19:32.528Z,929.00
2023-03-21T07:23:32.635Z,916.00
2023-03-21T07:27:32.698Z,822.00
2023-03-21T07:31:32.924Z,926.00
2023-03-21T07:35:33.069Z,1054.00
2023-03-21T07:39:33.030Z,1148.00
2023-03-21T07:43:33.039Z,1246.00
2023-03-21T07:47:32.967Z,1292.00
2023-03-21T07:51:32.895Z,1367.00
2023-03-21T07:55:32.851Z,1324.00
2023-03-21T07:59:32.806Z,1337.00
2023-03-21T08:03:32.777Z,1272.00
2023-03-21T08:07:32.754Z,1260.00
2023-03-21T08:11:32.838Z,1371.00
2023-03-21T08:15:32.965Z,1382.00
2023-03-21T08:19:32.963Z,968.00
2023-03-21T08:23:33.014Z,824.00
2023-03-21T08:27:33.118Z,929.00
2023-03-21T08:31:33.125Z,1071.00
2023-03-21T08:35:33.230Z,1171.00
2023-03-21T08:39:33.228Z,1282.00
2023-03-21T08:43:33.314Z,1399.00
2023-03-21T08:47:33.202Z,1472.00
2023-03-21T08:51:33.064Z,1552.00
2023-03-21T08:55:32.935Z,1690.00
2023-03-21T08:59:32.794Z,1777.00
2023-03-21T09:03:32.677Z,1865.00
2023-03-21T09:07:33.518Z,2009.00
2023-03-21T09:11:32.409Z,2113.00
2023-03-21T09:15:32.510Z,1888.00
2023-03-21T09:19:32.186Z,1175.00
2023-03-21T09:23:32.208Z,840.00
2023-03-21T09:27:32.038Z,1066.00
2023-03-21T09:31:32.010Z,1094.00
2023-03-21T09:35:31.893Z,1184.00
2023-03-21T09:39:31.802Z,1211.00
2023-03-21T09:43:31.767Z,1243.00
2023-03-21T09:47:32.516Z,1274.00
2023-03-21T09:51:31.530Z,1356.00
2023-03-21T09:55:31.662Z,1463.00
2023-03-21T09:59:33.368Z,1565.00
2023-03-21T10:03:31.774Z,1677.00
2023-03-21T10:07:31.806Z,1761.00
2023-03-21T10:11:31.793Z,1876.00
2023-03-21T10:15:31.753Z,1949.00
2023-03-21T10:19:31.791Z,1550.00
2023-03-21T10:23:31.844Z,1313.00
2023-03-21T10:27:31.866Z,1592.00
2023-03-21T10:31:32.009Z,1609.00
2023-03-21T10:35:32.113Z,1456.00
2023-03-21T10:39:32.237Z,1449.00
2023-03-21T10:43:32.127Z,1435.00
2023-03-21T10:47:32.269Z,1418.00
2023-03-21T10:51:31.858Z,1413.00
2023-03-21T10:55:31.727Z,1371.00
2023-03-21T10:59:31.653Z,1383.00
2023-03-21T11:03:31.589Z,1388.00
2023-03-21T11:07:31.338Z,1387.00
2023-03-21T11:11:31.544Z,1308.00
2023-03-21T11:15:31.063Z,1293.00
2023-03-21T11:19:30.942Z,1274.00
2023-03-21T11:23:32.476Z,1275.00
2023-03-21T11:27:30.807Z,1225.00
2023-03-21T11:31:30.713Z,1170.00
2023-03-21T11:35:30.604Z,1143.00
2023-03-21T11:39:30.472Z,1144.00
2023-03-21T11:43:30.353Z,1152.00
2023-03-21T11:47:30.235Z,1156.00
2023-03-21T11:51:30.119Z,1157.00
2023-03-21T11:55:30.016Z,1148.00
2023-03-21T11:59:29.880Z,1140.00
2023-03-21T12:03:38.116Z,1143.00
2023-03-21T12:07:30.654Z,1145.00
2023-03-21T12:11:29.543Z,1144.00
2023-03-21T12:15:29.643Z,1136.00
2023-03-21T12:19:29.764Z,1146.00
2023-03-21T12:23:29.918Z,1144.00
2023-03-21T12:27:29.977Z,1140.00
2023-03-21T12:31:30.292Z,1133.00
2023-03-21T12:35:30.295Z,1132.00
2023-03-21T12:39:30.089Z,1132.00
2023-03-21T12:43:29.948Z,1131.00
2023-03-21T12:47:29.895Z,1124.00
2023-03-21T12:51:29.717Z,1125.00
2023-03-21T12:55:29.551Z,1120.00
2023-03-21T12:59:29.390Z,1118.00
2023-03-21T13:03:39.233Z,1119.00
2023-03-21T13:07:30.180Z,1115.00
2023-03-21T13:11:29.056Z,1117.00
2023-03-21T13:15:28.919Z,1115.00
2023-03-21T13:19:28.834Z,1111.00
2023-03-21T13:23:28.645Z,1112.00
2023-03-21T13:27:28.518Z,1106.00
2023-03-21T13:31:30.558Z,1101.00
2023-03-21T13:35:29.368Z,1099.00
2023-03-21T13:39:28.193Z,1101.00
2023-03-21T13:43:28.180Z,1090.00
2023-03-21T13:47:28.320Z,1088.00
2023-03-21T13:51:28.544Z,1087.00
2023-03-21T13:55:28.519Z,1091.00
2023-03-21T13:59:28.626Z,1078.00
2023-03-21T14:03:28.740Z,1071.00
2023-03-21T14:07:28.979Z,1068.00
2023-03-21T14:11:28.869Z,1064.00
2023-03-21T14:15:28.981Z,1061.00
2023-03-21T14:19:29.006Z,1061.00
2023-03-21T14:23:29.194Z,1054.00
2023-03-21T14:27:29.630Z,1049.00
2023-03-21T14:31:29.220Z,1049.00
2023-03-21T14:35:29.252Z,1047.00
2023-03-21T14:39:29.428Z,1043.00
2023-03-21T14:43:29.412Z,1045.00
2023-03-21T14:47:29.572Z,1045.00
2023-03-21T14:51:29.534Z,1040.00
2023-03-21T14:55:29.691Z,1040.00
2023-03-21T14:59:29.698Z,1040.00
2023-03-21T15:03:30.137Z,1036.00
2023-03-21T15:07:29.888Z,1036.00
2023-03-21T15:11:30.092Z,1031.00
2023-03-21T15:15:30.063Z,1027.00
2023-03-21T15:19:30.137Z,1025.00
2023-03-21T15:23:30.259Z,1034.00
2023-03-21T15:27:30.462Z,1021.00
2023-03-21T15:31:30.529Z,1016.00
2023-03-21T15:35:30.546Z,1024.00
2023-03-21T15:39:30.642Z,1024.00
2023-03-21T15:43:30.813Z,1019.00
2023-03-21T15:47:30.798Z,1018.00
2023-03-21T15:51:30.732Z,1018.00
2023-03-21T15:55:30.659Z,1017.00
2023-03-21T15:59:30.652Z,1016.00
2023-03-21T16:03:30.580Z,1023.00
2023-03-21T16:07:30.357Z,1014.00
2023-03-21T16:11:30.240Z,1017.00
2023-03-21T16:15:30.182Z,1015.00
2023-03-21T16:19:30.025Z,1012.00
2023-03-21T16:23:29.921Z,1011.00
2023-03-21T16:27:29.809Z,1004.00
2023-03-21T16:31:29.734Z,1010.00
2023-03-21T16:35:29.628Z,1012.00
2023-03-21T16:39:29.518Z,1003.00
2023-03-21T16:43:29.671Z,999.00
2023-03-21T16:47:29.320Z,999.00
2023-03-21T16:51:29.246Z,996.00
2023-03-21T16:55:29.169Z,992.00
2023-03-21T16:59:29.097Z,994.00
2023-03-21T17:03:29.055Z,993.00
2023-03-21T17:07:28.968Z,989.00
2023-03-21T17:11:28.970Z,987.00
2023-03-21T17:15:28.840Z,984.00
2023-03-21T17:19:28.856Z,982.00
2023-03-21T17:23:28.747Z,980.00
2023-03-21T17:27:28.768Z,977.00
2023-03-21T17:31:28.735Z,971.00
2023-03-21T17:35:28.660Z,970.00
2023-03-21T17:39:28.620Z,974.00
2023-03-21T17:43:28.543Z,970.00
2023-03-21T17:47:28.502Z,963.00
2023-03-21T17:51:28.475Z,959.00
2023-03-21T17:55:28.484Z,962.00
2023-03-21T17:59:28.462Z,965.00
2023-03-21T18:03:28.467Z,963.00
2023-03-21T18:08:03.747Z,961.00
2023-03-21T18:11:29.345Z,960.00
2023-03-21T18:15:30.566Z,955.00
2023-03-21T18:19:28.237Z,954.00
2023-03-21T18:23:28.235Z,955.00
2023-03-21T18:27:32.565Z,949.00
2023-03-21T18:31:28.149Z,952.00
2023-03-21T18:35:28.062Z,949.00
2023-03-21T18:39:27.955Z,948.00
2023-03-21T18:44:01.078Z,940.00
2023-03-21T18:47:28.676Z,944.00
2023-03-21T18:51:27.526Z,948.00
2023-03-21T18:55:44.368Z,944.00
2023-03-21T18:59:28.312Z,939.00
2023-03-21T19:03:36.802Z,940.00
2023-03-21T19:07:28.069Z,934.00
2023-03-21T19:11:26.957Z,933.00
2023-03-21T19:15:27.149Z,933.00
2023-03-21T19:19:26.872Z,938.00
2023-03-21T19:23:39.882Z,930.00
2023-03-21T19:27:27.704Z,928.00
2023-03-21T19:31:26.633Z,932.00
2023-03-21T19:35:27.145Z,927.00
2023-03-21T19:39:26.355Z,920.00
2023-03-21T19:43:32.682Z,911.00
2023-03-21T19:47:27.128Z,910.00
2023-03-21T19:51:29.690Z,913.00
2023-03-21T19:55:25.875Z,912.00
2023-03-21T19:59:25.765Z,911.00
2023-03-21T20:03:25.727Z,912.00
2023-03-21T20:07:25.510Z,909.00
2023-03-21T20:11:25.396Z,918.00
2023-03-21T20:15:28.428Z,917.00
2023-03-21T20:19:25.213Z,907.00
2023-03-21T20:23:25.065Z,904.00
2023-03-21T20:27:24.944Z,899.00
2023-03-21T20:31:24.814Z,894.00
2023-03-21T20:35:48.004Z,889.00
2023-03-21T20:39:27.954Z,892.00
2023-03-21T20:44:14.022Z,892.00
2023-03-21T20:47:25.346Z,889.00
2023-03-21T20:55:25.277Z,885.00
2023-03-21T20:59:27.615Z,879.00
2023-03-21T21:03:24.021Z,877.00
2023-03-21T21:07:23.907Z,874.00
2023-03-21T21:15:24.781Z,871.00
2023-03-21T21:19:23.585Z,873.00
2023-03-21T21:23:25.500Z,873.00
2023-03-21T21:27:23.724Z,872.00
2023-03-21T21:31:23.874Z,864.00
2023-03-21T21:35:24.849Z,860.00
2023-03-21T21:39:24.107Z,855.00
2023-03-21T21:43:24.238Z,857.00
2023-03-21T21:47:24.132Z,856.00
2023-03-21T21:51:24.011Z,852.00
2023-03-21T21:55:23.888Z,851.00
2023-03-21T21:59:23.785Z,852.00
2023-03-21T22:03:23.659Z,851.00
2023-03-21T22:07:23.508Z,847.00
2023-03-21T22:11:23.795Z,847.00
2023-03-21T22:15:23.257Z,840.00
2023-03-21T22:19:23.135Z,847.00
2023-03-21T22:23:23.005Z,849.00
2023-03-21T22:27:23.069Z,841.00
2023-03-21T22:31:22.977Z,833.00
2023-03-21T22:35:22.903Z,832.00
2023-03-21T22:39:22.716Z,832.00
2023-03-21T22:43:22.611Z,832.00
2023-03-21T22:47:22.488Z,833.00
2023-03-21T22:51:22.377Z,824.00
2023-03-21T22:55:22.264Z,821.00
2023-03-21T22:59:22.160Z,816.00
2023-03-21T23:03:22.320Z,817.00
2023-03-21T23:07:21.996Z,820.00
2023-03-21T23:11:22.127Z,823.00
2023-03-21T23:15:22.017Z,814.00
2023-03-21T23:19:21.931Z,818.00
2023-03-21T23:23:21.826Z,814.00
2023-03-21T23:27:21.714Z,815.00
2023-03-21T23:31:21.661Z,816.00
2023-03-21T23:35:21.557Z,812.00
2023-03-21T23:39:21.398Z,810.00
2023-03-21T23:43:21.280Z,812.00
2023-03-21T23:47:21.181Z,805.00
2023-03-21T23:51:21.238Z,803.00
2023-03-21T23:55:21.118Z,801.00
2023-03-21T23:59:20.999Z,799.00
